Time;durP1;ratioP1;P1;durP2;ratioP2;P2;SDS_P1;SDS_P2;PMS_P1;PMS_P2;Temp;Humidity;BMP_temperature;BMP_pressure;BME280_temperature;BME280_humidity;BME280_pressure;Samples;Min_cycle;Max_cycle;Signal;HPM_P1;HPM_P2
2022/03/28 00:01:23;;;;;;;18.88;5.70;;;6.60;99.90;;;;;;4985297;28;20041;-92
2022/03/28 00:03:49;;;;;;;22.83;6.22;;;6.60;99.90;;;;;;5010790;28;20111;-90
2022/03/28 00:06:14;;;;;;;27.35;6.15;;;6.60;99.90;;;;;;4984920;28;20053;-91
2022/03/28 00:08:40;;;;;;;17.25;6.25;;;6.50;99.90;;;;;;4991802;28;20380;-92
2022/03/28 00:11:06;;;;;;;13.85;5.32;;;6.50;99.90;;;;;;4998071;28;20407;-92
2022/03/28 00:13:33;;;;;;;22.35;8.38;;;6.50;99.90;;;;;;5011683;28;20049;-91
2022/03/28 00:15:59;;;;;;;18.95;6.68;;;6.60;99.90;;;;;;5002822;28;20046;-91
2022/03/28 00:18:25;;;;;;;17.70;6.38;;;6.50;99.90;;;;;;4993605;28;20045;-91
2022/03/28 00:20:53;;;;;;;19.55;6.78;;;6.50;99.90;;;;;;5007597;28;20073;-92
2022/03/28 00:23:22;;;;;;;20.50;8.07;;;6.50;99.90;;;;;;5009150;28;20144;-91
2022/03/28 00:25:49;;;;;;;25.08;5.65;;;6.60;99.90;;;;;;4991931;28;20054;-91
2022/03/28 00:28:15;;;;;;;17.42;6.13;;;6.50;99.90;;;;;;4990119;28;20125;-90
2022/03/28 00:30:41;;;;;;;26.92;5.85;;;6.40;99.90;;;;;;5009312;28;20506;-91
2022/03/28 00:33:07;;;;;;;16.63;5.30;;;6.40;99.90;;;;;;5010243;28;20042;-90
2022/03/28 00:35:35;;;;;;;15.20;5.07;;;6.50;99.90;;;;;;4991585;28;20113;-92
2022/03/28 00:38:02;;;;;;;20.60;5.65;;;6.40;99.90;;;;;;5011254;28;20045;-91
2022/03/28 00:40:31;;;;;;;26.83;6.05;;;6.40;99.90;;;;;;5010100;28;20049;-92
2022/03/28 00:42:58;;;;;;;23.70;5.65;;;6.50;99.90;;;;;;5010107;28;20042;-91
2022/03/28 00:45:24;;;;;;;23.05;5.65;;;6.40;99.90;;;;;;4990362;28;20041;-91
2022/03/28 00:47:50;;;;;;;23.73;5.35;;;6.40;99.90;;;;;;4994119;28;20068;-91
2022/03/28 00:50:16;;;;;;;22.20;8.80;;;6.30;99.90;;;;;;4979000;28;20129;-91
2022/03/28 00:52:42;;;;;;;15.13;5.18;;;6.40;99.90;;;;;;4975624;28;20078;-92
2022/03/28 00:55:09;;;;;;;16.17;4.80;;;6.30;99.90;;;;;;5004773;28;20040;-92
2022/03/28 00:57:35;;;;;;;14.93;6.18;;;6.30;99.90;;;;;;4994245;28;20128;-91
2022/03/28 01:00:05;;;;;;;24.17;9.50;;;6.30;99.90;;;;;;4998550;28;20343;-91
2022/03/28 01:02:31;;;;;;;17.40;6.55;;;6.40;99.90;;;;;;4990783;28;20054;-91
2022/03/28 01:04:58;;;;;;;22.52;6.55;;;6.40;99.90;;;;;;4995638;28;20046;-91
2022/03/28 01:07:26;;;;;;;15.88;5.43;;;6.40;99.90;;;;;;4974473;28;20038;-92
2022/03/28 01:09:55;;;;;;;16.55;5.28;;;6.40;99.90;;;;;;4997207;28;20112;-91
2022/03/28 01:12:22;;;;;;;28.27;10.98;;;6.40;99.90;;;;;;4994561;28;20250;-91
2022/03/28 01:14:49;;;;;;;25.75;8.00;;;6.40;99.90;;;;;;4996456;28;20050;-91
2022/03/28 01:19:59;;;;;;;17.08;6.13;;;6.40;99.90;;;;;;5010870;28;20053;-91
2022/03/28 01:22:25;;;;;;;25.50;7.57;;;6.40;99.90;;;;;;5014934;28;20034;-92
2022/03/28 01:24:50;;;;;;;21.80;7.18;;;6.30;99.90;;;;;;5014747;28;20038;-91
2022/03/28 01:27:19;;;;;;;18.60;7.13;;;6.40;99.90;;;;;;4994195;28;20374;-92
2022/03/28 01:29:45;;;;;;;21.60;7.70;;;6.30;99.90;;;;;;4999961;28;20034;-91
2022/03/28 01:32:11;;;;;;;26.80;7.20;;;6.40;99.90;;;;;;4995894;28;20056;-92
2022/03/28 01:34:37;;;;;;;21.42;6.88;;;6.30;99.90;;;;;;4995274;28;20045;-92
2022/03/28 01:37:03;;;;;;;19.35;7.18;;;6.40;99.90;;;;;;5021237;28;20104;-92
2022/03/28 01:39:29;;;;;;;24.00;8.45;;;6.40;99.90;;;;;;5004925;28;20483;-91
2022/03/28 01:41:55;;;;;;;22.27;11.73;;;6.40;99.90;;;;;;4995983;28;20072;-89
2022/03/28 01:44:20;;;;;;;28.42;11.77;;;6.50;99.90;;;;;;4996798;28;20038;-91
2022/03/28 01:46:48;;;;;;;34.05;8.13;;;6.50;99.90;;;;;;4995599;28;20049;-92
2022/03/28 01:49:15;;;;;;;21.98;8.43;;;6.50;99.90;;;;;;5012721;28;20421;-92
2022/03/28 01:51:41;;;;;;;29.17;8.70;;;6.60;99.90;;;;;;5014318;28;20092;-91
2022/03/28 01:54:08;;;;;;;36.15;8.18;;;6.40;99.90;;;;;;4993917;28;20053;-92
2022/03/28 01:56:35;;;;;;;34.50;8.95;;;6.40;99.90;;;;;;5015767;28;20049;-91
2022/03/28 01:59:01;;;;;;;42.60;9.30;;;6.40;99.90;;;;;;5013174;28;20044;-92
2022/03/28 02:01:27;;;;;;;29.20;9.35;;;6.40;99.90;;;;;;4998687;28;20398;-92
2022/03/28 02:03:53;;;;;;;25.83;8.65;;;6.30;99.90;;;;;;4995918;28;20049;-92
2022/03/28 02:06:18;;;;;;;34.10;10.18;;;6.30;99.90;;;;;;4997052;28;20057;-92
2022/03/28 02:08:44;;;;;;;26.38;8.35;;;6.30;99.90;;;;;;5013572;28;20049;-93
2022/03/28 02:11:10;;;;;;;44.60;10.65;;;6.30;99.90;;;;;;4996831;28;20471;-92
2022/03/28 02:13:36;;;;;;;30.75;8.75;;;6.30;99.90;;;;;;5013499;28;20041;-92
2022/03/28 02:16:02;;;;;;;39.67;10.05;;;6.30;99.90;;;;;;5013597;28;20046;-92
2022/03/28 02:18:28;;;;;;;44.63;10.68;;;6.30;99.90;;;;;;4987063;28;20053;-92
2022/03/28 02:20:54;;;;;;;39.65;10.52;;;6.30;99.90;;;;;;4997404;28;20049;-91
2022/03/28 02:23:21;;;;;;;38.25;11.13;;;6.30;99.90;;;;;;4996475;28;20076;-91
2022/03/28 02:25:47;;;;;;;60.10;13.52;;;6.20;99.90;;;;;;5010943;28;20050;-91
2022/03/28 02:28:12;;;;;;;31.38;10.80;;;6.40;99.90;;;;;;5005562;28;20077;-92
2022/03/28 02:30:39;;;;;;;34.90;11.23;;;6.40;99.90;;;;;;5012721;28;20057;-92
2022/03/28 02:33:06;;;;;;;44.00;11.70;;;6.40;99.90;;;;;;4977064;28;20038;-91
2022/03/28 02:35:31;;;;;;;52.72;11.23;;;6.40;99.90;;;;;;4977270;28;20058;-91
2022/03/28 02:38:05;;;;;;;29.85;10.52;;;6.40;99.90;;;;;;5011462;28;20038;-92
2022/03/28 02:40:32;;;;;;;51.30;17.13;;;6.40;99.90;;;;;;5014700;28;20132;-92
2022/03/28 02:43:00;;;;;;;50.15;15.60;;;6.40;99.90;;;;;;4995924;28;20038;-91
2022/03/28 02:45:28;;;;;;;42.65;11.18;;;6.40;99.90;;;;;;5009063;28;20045;-92
2022/03/28 02:47:53;;;;;;;38.15;8.63;;;6.40;99.90;;;;;;4976800;28;20070;-91
2022/03/28 02:50:19;;;;;;;73.32;11.93;;;6.40;99.90;;;;;;4993040;28;20479;-92
2022/03/28 02:52:45;;;;;;;52.22;16.95;;;6.30;99.90;;;;;;4995847;28;20051;-92
2022/03/28 02:55:11;;;;;;;65.88;13.27;;;6.40;99.90;;;;;;4995950;28;20462;-91
2022/03/28 02:57:37;;;;;;;45.95;11.40;;;6.40;99.90;;;;;;5011476;28;20045;-91
2022/03/28 03:00:07;;;;;;;34.67;12.10;;;6.40;99.90;;;;;;4994361;28;20057;-92
2022/03/28 03:02:34;;;;;;;74.28;14.60;;;6.40;99.90;;;;;;5012243;28;20088;-91
2022/03/28 03:04:59;;;;;;;67.68;14.10;;;6.40;99.90;;;;;;4992578;28;20385;-91
2022/03/28 03:07:25;;;;;;;49.38;13.70;;;6.40;99.90;;;;;;4993526;28;20129;-92
2022/03/28 03:09:51;;;;;;;53.50;12.70;;;6.40;99.90;;;;;;4976743;28;20038;-92
2022/03/28 03:12:16;;;;;;;36.63;11.88;;;6.30;99.90;;;;;;4977042;28;20049;-91
2022/03/28 03:14:42;;;;;;;89.38;16.42;;;6.40;99.90;;;;;;4976764;28;20042;-91
2022/03/28 03:17:08;;;;;;;70.88;15.85;;;6.40;99.90;;;;;;4994521;28;20177;-90
2022/03/28 03:19:34;;;;;;;51.22;13.65;;;6.40;99.90;;;;;;5012189;28;20128;-91
2022/03/28 03:22:00;;;;;;;66.97;15.43;;;6.40;99.90;;;;;;5011774;28;20107;-91
2022/03/28 03:24:26;;;;;;;122.32;23.48;;;6.40;99.90;;;;;;5012428;28;20041;-91
2022/03/28 03:26:52;;;;;;;38.28;13.00;;;6.50;99.90;;;;;;5011423;28;20497;-92
2022/03/28 03:29:18;;;;;;;44.03;12.85;;;6.40;99.90;;;;;;4992966;28;20594;-92
2022/03/28 03:31:43;;;;;;;46.20;14.75;;;6.40;99.90;;;;;;5010248;28;20057;-91
2022/03/28 03:34:09;;;;;;;43.45;17.85;;;6.50;99.90;;;;;;4994714;28;20120;-92
2022/03/28 03:36:35;;;;;;;41.33;19.48;;;6.50;99.90;;;;;;4995376;28;20064;-92
2022/03/28 03:39:01;;;;;;;36.78;13.15;;;6.50;99.90;;;;;;4992425;28;20044;-91
2022/03/28 03:41:27;;;;;;;35.90;12.48;;;6.50;99.90;;;;;;4993522;28;20050;-92
2022/03/28 03:43:52;;;;;;;56.70;15.40;;;6.50;99.90;;;;;;4977414;28;20411;-92
2022/03/28 03:46:18;;;;;;;43.13;13.32;;;6.50;99.90;;;;;;4978501;28;20046;-91
2022/03/28 03:48:43;;;;;;;51.60;14.77;;;6.50;99.90;;;;;;4989384;28;20133;-91
2022/03/28 03:51:09;;;;;;;88.05;16.48;;;6.50;99.90;;;;;;5017050;28;20546;-91
2022/03/28 03:53:35;;;;;;;90.00;24.92;;;6.50;99.90;;;;;;5003509;28;20044;-91
2022/03/28 03:56:00;;;;;;;85.63;17.77;;;6.50;99.90;;;;;;4994638;28;20406;-91
2022/03/28 03:58:27;;;;;;;50.60;14.80;;;6.50;99.90;;;;;;4986807;28;20143;-90
2022/03/28 04:00:52;;;;;;;44.50;13.10;;;6.50;99.90;;;;;;4975712;28;20047;-92
2022/03/28 04:03:18;;;;;;;42.20;13.57;;;6.50;99.90;;;;;;4975556;28;20043;-92
2022/03/28 04:05:44;;;;;;;47.95;14.60;;;6.40;99.90;;;;;;4988401;28;20037;-91
2022/03/28 04:08:09;;;;;;;48.97;15.57;;;6.50;99.90;;;;;;5011588;28;20072;-91
2022/03/28 04:10:35;;;;;;;58.65;23.23;;;6.50;99.90;;;;;;5010896;28;20038;-91
2022/03/28 04:13:02;;;;;;;48.25;15.15;;;6.50;99.90;;;;;;4994270;28;20391;-92
2022/03/28 04:15:28;;;;;;;100.50;18.52;;;6.50;99.90;;;;;;5010796;28;20044;-92
2022/03/28 04:17:54;;;;;;;55.92;14.27;;;6.50;99.90;;;;;;4995335;28;20132;-92
2022/03/28 04:20:20;;;;;;;77.18;23.95;;;6.50;99.90;;;;;;5012403;28;20042;-92
2022/03/28 04:22:46;;;;;;;43.95;15.43;;;6.50;99.90;;;;;;5011750;28;20128;-92
2022/03/28 04:25:13;;;;;;;90.15;18.50;;;6.50;99.90;;;;;;4995396;28;20073;-91
2022/03/28 04:27:40;;;;;;;41.60;15.45;;;6.40;99.90;;;;;;4989960;28;20057;-92
2022/03/28 04:30:08;;;;;;;57.67;16.48;;;6.50;99.90;;;;;;5010234;28;20052;-91
2022/03/28 04:32:35;;;;;;;49.75;15.32;;;6.50;99.90;;;;;;5016429;28;20048;-91
2022/03/28 04:35:01;;;;;;;64.45;17.02;;;6.40;99.90;;;;;;5002380;28;20046;-91
2022/03/28 04:37:31;;;;;;;36.20;15.98;;;6.40;99.90;;;;;;5011365;28;20046;-91
2022/03/28 04:39:57;;;;;;;41.78;15.98;;;6.50;99.90;;;;;;5011120;28;20038;-91
2022/03/28 04:42:23;;;;;;;53.17;18.15;;;6.40;99.90;;;;;;4998348;28;20046;-91
2022/03/28 04:44:48;;;;;;;57.13;15.50;;;6.40;99.90;;;;;;4976075;28;20112;-91
2022/03/28 04:47:14;;;;;;;60.65;17.20;;;6.40;99.90;;;;;;4976778;28;20089;-91
2022/03/28 04:49:39;;;;;;;30.60;13.80;;;6.40;99.90;;;;;;5003866;28;20037;-92
2022/03/28 04:52:05;;;;;;;65.57;21.45;;;6.40;99.90;;;;;;5012564;28;20061;-92
2022/03/28 04:54:31;;;;;;;37.00;14.35;;;6.40;99.90;;;;;;5024173;28;20014;-92
2022/03/28 04:56:56;;;;;;;37.70;12.15;;;6.30;99.90;;;;;;5010294;28;20038;-92
2022/03/28 04:59:22;;;;;;;40.42;13.00;;;6.30;99.90;;;;;;5002132;28;20032;-91
2022/03/28 05:01:48;;;;;;;42.67;20.65;;;6.30;99.90;;;;;;5001734;28;20037;-92
2022/03/28 05:04:13;;;;;;;24.95;12.93;;;6.30;99.90;;;;;;5009571;28;20042;-92
2022/03/28 05:06:39;;;;;;;24.88;12.07;;;6.20;99.90;;;;;;4975380;28;20050;-91
2022/03/28 05:09:04;;;;;;;29.60;14.05;;;6.20;99.90;;;;;;4980910;28;20046;-92
2022/03/28 05:11:30;;;;;;;40.72;15.27;;;6.10;99.90;;;;;;4994237;28;20586;-91
2022/03/28 05:13:58;;;;;;;31.38;15.23;;;6.10;99.90;;;;;;5009305;28;20046;-91
2022/03/28 05:16:24;;;;;;;33.15;16.55;;;6.10;99.90;;;;;;5011004;28;20441;-89
2022/03/28 05:18:49;;;;;;;28.98;15.25;;;6.00;99.90;;;;;;4998597;28;20034;-90
2022/03/28 05:21:15;;;;;;;28.98;15.20;;;6.00;99.90;;;;;;4989375;28;20082;-90
2022/03/28 05:23:40;;;;;;;31.40;15.65;;;6.00;99.90;;;;;;4997186;28;20042;-89
2022/03/28 05:26:06;;;;;;;33.47;16.50;;;6.00;99.90;;;;;;5004194;28;20041;-89
2022/03/28 05:28:32;;;;;;;30.60;16.30;;;6.00;99.90;;;;;;5005788;28;20117;-89
2022/03/28 05:30:58;;;;;;;28.02;14.65;;;6.00;99.90;;;;;;4990167;28;20136;-90
2022/03/28 05:33:24;;;;;;;31.05;14.80;;;6.00;99.90;;;;;;4990845;28;20041;-89
2022/03/28 05:35:51;;;;;;;27.38;15.40;;;6.00;99.90;;;;;;5009824;28;20125;-90
2022/03/28 05:38:18;;;;;;;29.52;14.82;;;6.00;99.90;;;;;;5003496;28;20212;-90
2022/03/28 05:40:44;;;;;;;30.88;15.63;;;6.10;99.90;;;;;;4973878;28;20537;-90
2022/03/28 05:43:09;;;;;;;32.22;15.27;;;6.00;99.90;;;;;;5005897;28;20041;-89
2022/03/28 05:45:36;;;;;;;27.55;14.05;;;6.00;99.90;;;;;;5008523;28;20105;-90
2022/03/28 05:48:02;;;;;;;24.80;12.48;;;6.00;99.90;;;;;;5006698;28;20054;-90
2022/03/28 05:50:28;;;;;;;23.95;12.75;;;6.00;99.90;;;;;;5010310;28;20092;-89
2022/03/28 05:52:54;;;;;;;33.55;20.92;;;6.00;99.90;;;;;;5010061;28;20058;-89
2022/03/28 05:55:20;;;;;;;23.90;12.30;;;5.90;99.90;;;;;;5011196;28;20042;-89
2022/03/28 05:57:46;;;;;;;24.17;13.40;;;6.00;99.90;;;;;;5024134;28;20045;-91
2022/03/28 06:00:14;;;;;;;23.42;12.02;;;6.00;99.90;;;;;;5016416;28;20165;-90
2022/03/28 06:02:40;;;;;;;24.83;12.20;;;6.00;99.90;;;;;;5011667;28;20091;-89
2022/03/28 06:05:06;;;;;;;25.25;13.15;;;6.00;99.90;;;;;;5009490;28;20169;-89
2022/03/28 06:07:33;;;;;;;29.35;18.13;;;6.00;99.90;;;;;;4993226;28;20137;-89
2022/03/28 06:09:58;;;;;;;27.00;13.23;;;6.10;99.90;;;;;;5011383;28;20410;-89
2022/03/28 06:12:24;;;;;;;26.25;12.05;;;6.10;99.90;;;;;;4994086;28;20042;-89
2022/03/28 06:14:50;;;;;;;26.98;12.80;;;6.00;99.90;;;;;;5009977;28;20112;-89
2022/03/28 06:17:23;;;;;;;25.63;12.30;;;6.10;99.90;;;;;;4993429;28;20445;-89
2022/03/28 06:19:48;;;;;;;26.80;12.40;;;6.10;99.90;;;;;;4999488;28;20047;-89
2022/03/28 06:22:14;;;;;;;32.40;19.17;;;6.10;99.90;;;;;;5008348;28;20498;-88
2022/03/28 06:24:40;;;;;;;37.63;13.63;;;6.20;99.90;;;;;;5011219;28;20483;-89
2022/03/28 06:27:06;;;;;;;25.10;11.13;;;6.20;99.90;;;;;;4992317;28;20041;-90
2022/03/28 06:29:31;;;;;;;24.02;12.07;;;6.10;99.90;;;;;;5007254;28;20041;-88
2022/03/28 06:31:57;;;;;;;22.10;10.18;;;6.10;99.90;;;;;;5003148;28;21021;-88
2022/03/28 06:34:22;;;;;;;28.33;11.68;;;6.10;99.90;;;;;;4974519;28;20046;-88
2022/03/28 06:36:48;;;;;;;34.28;12.75;;;6.20;99.90;;;;;;5009791;28;20046;-88
2022/03/28 06:39:14;;;;;;;22.08;10.30;;;6.20;99.90;;;;;;5010163;28;20455;-89
2022/03/28 06:41:40;;;;;;;26.75;13.65;;;6.20;99.90;;;;;;5020873;28;20483;-88
2022/03/28 06:44:08;;;;;;;27.65;15.02;;;6.20;99.90;;;;;;4993259;28;20073;-88
2022/03/28 06:46:34;;;;;;;32.22;16.13;;;6.20;99.90;;;;;;4997136;28;20061;-88
2022/03/28 06:49:00;;;;;;;31.05;11.60;;;6.30;99.90;;;;;;5004489;28;20050;-88
2022/03/28 06:51:26;;;;;;;25.00;9.60;;;6.20;99.90;;;;;;4993153;28;20099;-88
2022/03/28 06:53:51;;;;;;;26.05;11.90;;;6.20;99.90;;;;;;5006029;28;20030;-90
2022/03/28 06:56:17;;;;;;;27.40;11.77;;;6.20;99.90;;;;;;5008019;28;20052;-90
2022/03/28 06:58:43;;;;;;;28.63;11.05;;;6.20;99.90;;;;;;5007165;28;20030;-91
2022/03/28 07:01:10;;;;;;;26.58;14.38;;;6.20;99.90;;;;;;5006104;28;20120;-90
2022/03/28 07:03:36;;;;;;;29.75;15.63;;;6.30;99.90;;;;;;5005027;28;20050;-90
2022/03/28 07:06:02;;;;;;;25.05;15.40;;;6.30;99.90;;;;;;4974316;28;20137;-91
2022/03/28 07:08:29;;;;;;;23.60;13.90;;;6.40;99.90;;;;;;5008620;28;20038;-91
2022/03/28 07:10:55;;;;;;;20.40;9.63;;;6.50;99.90;;;;;;5010677;28;20548;-90
2022/03/28 07:13:22;;;;;;;21.83;9.77;;;6.40;99.90;;;;;;5010220;28;20050;-89
2022/03/28 07:15:48;;;;;;;22.58;9.90;;;6.40;99.90;;;;;;4994443;28;20493;-90
2022/03/28 07:18:14;;;;;;;25.33;14.40;;;6.40;99.90;;;;;;5009919;28;20120;-88
2022/03/28 07:20:40;;;;;;;22.55;10.32;;;6.50;99.90;;;;;;5000603;28;20162;-91
2022/03/28 07:23:06;;;;;;;19.80;9.63;;;6.40;99.90;;;;;;4994556;28;20038;-91
2022/03/28 07:25:33;;;;;;;19.70;9.40;;;6.40;99.90;;;;;;5011358;28;20042;-92
2022/03/28 07:27:59;;;;;;;22.48;9.98;;;6.40;99.90;;;;;;5011664;28;20401;-92
2022/03/28 07:30:26;;;;;;;22.20;10.48;;;6.30;99.90;;;;;;5012186;28;20363;-94
2022/03/28 07:32:52;;;;;;;21.00;9.95;;;6.30;99.90;;;;;;5012889;28;20053;-93
2022/03/28 07:35:21;;;;;;;25.45;14.20;;;6.30;99.90;;;;;;5012710;28;20074;-91
2022/03/28 07:37:47;;;;;;;21.20;9.93;;;6.40;99.90;;;;;;5012406;28;20046;-93
2022/03/28 07:40:15;;;;;;;23.48;10.27;;;6.40;99.90;;;;;;4997708;28;20070;-93
2022/03/28 07:42:41;;;;;;;21.27;10.23;;;6.40;99.90;;;;;;5010636;28;20053;-93
2022/03/28 07:45:08;;;;;;;20.10;9.57;;;6.40;99.90;;;;;;5012331;28;20108;-92
2022/03/28 07:47:35;;;;;;;21.90;9.77;;;6.50;99.90;;;;;;4995769;28;20068;-94
2022/03/28 07:50:02;;;;;;;24.20;10.55;;;6.50;99.90;;;;;;5010166;28;20107;-92
2022/03/28 07:52:28;;;;;;;24.42;10.63;;;6.40;99.90;;;;;;5020411;28;20045;-96
2022/03/28 07:54:58;;;;;;;26.98;11.98;;;6.50;99.90;;;;;;5064231;23;20050;-96
2022/03/28 07:57:28;;;;;;;26.92;12.43;;;6.60;99.90;;;;;;5087116;23;20038;-96
2022/03/28 07:59:57;;;;;;;28.27;11.35;;;6.50;99.90;;;;;;5184928;22;20088;-96
2022/03/28 08:02:24;;;;;;;24.60;11.80;;;6.60;99.90;;;;;;5015775;28;20053;-94
2022/03/28 08:04:50;;;;;;;27.52;14.48;;;6.60;99.90;;;;;;5014631;28;20037;-94
2022/03/28 08:07:15;;;;;;;22.35;11.00;;;6.60;99.90;;;;;;5049126;28;20129;-94
2022/03/28 08:09:42;;;;;;;22.73;10.00;;;6.60;99.90;;;;;;5020447;28;20081;-91
2022/03/28 08:12:09;;;;;;;20.17;10.02;;;6.60;99.90;;;;;;5022078;28;20038;-94
2022/03/28 08:14:36;;;;;;;26.23;13.85;;;6.60;99.90;;;;;;5032985;28;20042;-88
2022/03/28 08:17:01;;;;;;;23.83;12.93;;;6.70;99.90;;;;;;5022649;28;20125;-87
2022/03/28 08:19:27;;;;;;;19.77;9.23;;;6.60;99.90;;;;;;4999146;28;20120;-87
2022/03/28 08:21:53;;;;;;;20.33;8.27;;;6.60;99.90;;;;;;5012641;28;20053;-87
2022/03/28 08:24:19;;;;;;;14.35;6.22;;;6.60;99.90;;;;;;5022801;28;20045;-88
2022/03/28 08:26:46;;;;;;;16.50;8.73;;;6.60;99.90;;;;;;5034177;28;20048;-87
2022/03/28 08:29:12;;;;;;;16.55;9.68;;;6.80;99.90;;;;;;5021993;28;20038;-88
2022/03/28 08:31:38;;;;;;;12.70;6.97;;;7.00;99.90;;;;;;5010179;28;20041;-87
2022/03/28 08:34:03;;;;;;;15.35;8.13;;;7.10;99.90;;;;;;5023641;28;20116;-88
2022/03/28 08:36:29;;;;;;;12.32;6.57;;;7.20;99.90;;;;;;5027690;28;20383;-88
2022/03/28 08:38:55;;;;;;;11.10;4.97;;;7.40;99.90;;;;;;5016953;28;20042;-87
2022/03/28 08:41:25;;;;;;;12.70;5.65;;;7.30;99.90;;;;;;5047778;28;20063;-87
2022/03/28 08:43:51;;;;;;;11.98;6.75;;;7.20;99.90;;;;;;5046157;28;20044;-87
2022/03/28 08:46:18;;;;;;;10.68;5.50;;;7.40;99.90;;;;;;5017843;28;20064;-90
2022/03/28 08:48:45;;;;;;;10.60;4.55;;;7.30;99.90;;;;;;5023134;28;20084;-90
2022/03/28 08:51:13;;;;;;;11.13;6.05;;;7.40;99.90;;;;;;4995755;28;20431;-92
2022/03/28 08:53:39;;;;;;;10.10;4.95;;;7.40;99.90;;;;;;5008317;28;20042;-93
2022/03/28 08:56:07;;;;;;;10.30;5.57;;;7.50;99.90;;;;;;5016923;28;20233;-92
2022/03/28 08:58:34;;;;;;;10.77;5.72;;;7.50;99.90;;;;;;5013824;28;20505;-92
2022/03/28 09:01:02;;;;;;;10.93;6.43;;;7.60;99.90;;;;;;5003093;28;20057;-92
2022/03/28 09:03:39;;;;;;;9.38;4.50;;;7.60;99.90;;;;;;5003415;28;20116;-92
2022/03/28 09:06:31;;;;;;;9.85;5.45;;;7.70;99.90;;;;;;5018671;28;20048;-92
2022/03/28 09:09:21;;;;;;;10.43;5.78;;;7.70;99.90;;;;;;5025106;28;20077;-92
2022/03/28 09:11:54;;;;;;;11.50;6.88;;;7.70;99.90;;;;;;5027295;28;20046;-94
2022/03/28 09:14:27;;;;;;;10.00;4.88;;;7.90;99.90;;;;;;5014552;28;20053;-93
2022/03/28 09:17:10;;;;;;;10.73;6.03;;;8.00;99.90;;;;;;5016599;28;20555;-88
2022/03/28 09:20:01;;;;;;;10.25;6.15;;;7.90;99.90;;;;;;5026927;28;20430;-91
2022/03/28 09:22:32;;;;;;;11.68;7.30;;;8.00;99.90;;;;;;5025241;28;20045;-94
2022/03/28 09:25:04;;;;;;;11.45;6.68;;;7.90;99.90;;;;;;5011205;28;20104;-94
2022/03/28 09:27:32;;;;;;;12.05;7.20;;;8.00;99.90;;;;;;5002930;28;20056;-94
2022/03/28 09:30:15;;;;;;;12.02;7.93;;;8.00;99.90;;;;;;5028586;28;20075;-94
2022/03/28 09:32:46;;;;;;;12.10;7.72;;;8.10;99.90;;;;;;5034527;28;20112;-95
2022/03/28 09:35:19;;;;;;;11.85;7.53;;;8.10;99.90;;;;;;5024414;28;20077;-93
2022/03/28 09:37:56;;;;;;;11.95;7.50;;;8.30;99.90;;;;;;5045681;28;20049;-95
2022/03/28 09:40:25;;;;;;;12.32;7.90;;;8.40;99.90;;;;;;5050760;28;20045;-92
2022/03/28 09:42:51;;;;;;;12.50;7.85;;;8.50;99.90;;;;;;5064229;28;20045;-95
2022/03/28 09:45:50;;;;;;;12.98;8.60;;;8.50;99.90;;;;;;5069192;28;20054;-92
2022/03/28 09:48:19;;;;;;;12.52;8.05;;;8.60;99.90;;;;;;5056847;28;20037;-94
2022/03/28 09:50:48;;;;;;;11.15;7.30;;;8.60;99.90;;;;;;5056253;28;20076;-93
2022/03/28 09:53:17;;;;;;;11.35;7.00;;;8.70;99.90;;;;;;5009189;28;20050;-93
2022/03/28 09:55:52;;;;;;;11.30;7.72;;;8.80;99.90;;;;;;5033319;28;20044;-93
2022/03/28 09:58:49;;;;;;;11.98;7.63;;;8.80;99.90;;;;;;5006248;28;20069;-92
2022/03/28 10:01:16;;;;;;;12.10;7.60;;;8.80;99.90;;;;;;5007768;28;20049;-93
2022/03/28 10:03:51;;;;;;;14.25;8.65;;;8.60;99.90;;;;;;5025379;28;20049;-93
2022/03/28 10:06:29;;;;;;;12.85;8.05;;;8.60;99.90;;;;;;5024510;28;20387;-92
2022/03/28 10:08:55;;;;;;;11.80;8.05;;;8.60;99.90;;;;;;5003546;28;20350;-92
2022/03/28 10:11:21;;;;;;;12.63;8.57;;;8.60;99.90;;;;;;5013307;28;20091;-93
2022/03/28 10:13:47;;;;;;;12.13;8.73;;;8.70;99.90;;;;;;5055382;28;20025;-93
2022/03/28 10:16:13;;;;;;;13.20;8.63;;;8.80;99.90;;;;;;5041456;28;20307;-91
2022/03/28 10:18:41;;;;;;;12.77;8.40;;;8.70;99.90;;;;;;5017293;28;20049;-92
2022/03/28 10:21:08;;;;;;;13.13;9.13;;;8.90;99.90;;;;;;4997326;28;20113;-93
2022/03/28 10:23:44;;;;;;;12.63;8.93;;;8.90;99.90;;;;;;5001884;28;20120;-92
2022/03/28 10:26:11;;;;;;;13.18;8.55;;;9.00;99.90;;;;;;5005508;28;20049;-93
2022/03/28 10:28:37;;;;;;;12.43;8.85;;;9.10;99.90;;;;;;5012349;28;20188;-94
2022/03/28 10:31:16;;;;;;;12.25;8.75;;;9.10;99.90;;;;;;5040892;28;20048;-91
2022/03/28 10:33:51;;;;;;;13.68;9.40;;;9.20;99.90;;;;;;5017947;28;20402;-93
2022/03/28 10:36:31;;;;;;;15.23;9.52;;;9.20;99.90;;;;;;5000436;28;20053;-92
2022/03/28 10:39:31;;;;;;;16.65;11.15;;;9.30;99.90;;;;;;5003306;28;20042;-93
2022/03/28 10:42:12;;;;;;;13.40;9.27;;;9.20;99.90;;;;;;5016589;28;20395;-92
2022/03/28 10:45:05;;;;;;;12.73;8.80;;;9.30;99.90;;;;;;5028846;28;20048;-93
2022/03/28 10:47:51;;;;;;;13.07;9.07;;;9.40;99.90;;;;;;5000164;28;20054;-94
2022/03/28 10:50:26;;;;;;;13.60;10.00;;;9.40;99.90;;;;;;5008555;28;20042;-92
2022/03/28 10:53:25;;;;;;;13.25;9.48;;;9.40;99.90;;;;;;5030848;28;20056;-93
2022/03/28 10:55:58;;;;;;;13.05;9.45;;;9.40;99.90;;;;;;5032902;28;20049;-93
2022/03/28 10:58:43;;;;;;;13.25;9.23;;;9.40;99.90;;;;;;4998759;28;20048;-92
2022/03/28 11:01:13;;;;;;;14.35;9.48;;;9.60;99.90;;;;;;5028362;28;20160;-92
2022/03/28 11:03:55;;;;;;;13.60;10.02;;;9.60;99.90;;;;;;5018456;28;20045;-92
2022/03/28 11:07:00;;;;;;;13.18;9.45;;;9.80;99.90;;;;;;5036462;28;20064;-94
2022/03/28 11:09:46;;;;;;;15.50;10.40;;;9.90;99.90;;;;;;5015101;28;20073;-93
2022/03/28 11:12:28;;;;;;;13.63;9.60;;;10.20;99.90;;;;;;5026155;28;20049;-93
2022/03/28 11:14:56;;;;;;;13.70;9.93;;;10.30;99.90;;;;;;5022136;28;20048;-95
2022/03/28 11:17:32;;;;;;;13.90;9.95;;;10.30;99.90;;;;;;5026407;28;20081;-93
2022/03/28 11:20:00;;;;;;;14.52;10.35;;;10.40;99.90;;;;;;5010991;28;20038;-94
2022/03/28 11:22:47;;;;;;;14.57;10.27;;;10.30;99.90;;;;;;5007247;28;20052;-94
2022/03/28 11:25:33;;;;;;;14.35;10.50;;;10.30;99.90;;;;;;5007157;28;20046;-92
2022/03/28 11:28:10;;;;;;;15.00;10.43;;;10.30;99.90;;;;;;5008953;28;20038;-92
2022/03/28 11:31:06;;;;;;;14.05;10.90;;;10.30;99.90;;;;;;5019994;28;20449;-92
2022/03/28 11:33:36;;;;;;;13.35;10.35;;;10.40;99.90;;;;;;5009849;28;20057;-92
2022/03/28 11:36:08;;;;;;;13.35;10.25;;;10.40;99.90;;;;;;5012144;28;20068;-93
2022/03/28 11:38:40;;;;;;;14.50;10.48;;;10.60;99.90;;;;;;5013058;28;20144;-93
2022/03/28 11:41:08;;;;;;;14.82;10.82;;;10.70;99.90;;;;;;5027373;28;20095;-92
2022/03/28 11:43:39;;;;;;;15.13;10.80;;;10.90;99.90;;;;;;5012741;28;20041;-92
2022/03/28 11:46:18;;;;;;;14.10;10.07;;;11.00;99.90;;;;;;4997397;28;20415;-92
2022/03/28 11:49:07;;;;;;;14.48;10.80;;;11.20;99.90;;;;;;5026909;28;20056;-93
2022/03/28 11:51:36;;;;;;;14.50;10.70;;;11.30;99.90;;;;;;5031916;28;20179;-93
2022/03/28 11:54:04;;;;;;;13.52;10.20;;;11.30;99.90;;;;;;5030168;28;20050;-92
2022/03/28 11:56:32;;;;;;;13.85;10.38;;;11.40;99.90;;;;;;5007863;28;20564;-92
2022/03/28 11:59:07;;;;;;;14.23;10.18;;;11.60;99.90;;;;;;5012726;28;20038;-92
2022/03/28 12:01:36;;;;;;;16.05;11.32;;;11.60;99.90;;;;;;5015962;28;20138;-93
2022/03/28 12:04:03;;;;;;;14.25;11.23;;;11.50;99.90;;;;;;5030232;28;20114;-92
2022/03/28 12:06:34;;;;;;;14.55;10.90;;;11.40;99.90;;;;;;5015530;28;20038;-92
2022/03/28 12:09:01;;;;;;;13.95;10.80;;;11.30;99.90;;;;;;5011933;28;20478;-93
2022/03/28 12:11:26;;;;;;;15.18;11.90;;;11.20;99.90;;;;;;5032980;28;20391;-92
2022/03/28 12:13:54;;;;;;;15.35;11.50;;;11.10;99.90;;;;;;5031825;28;20037;-94
2022/03/28 12:16:20;;;;;;;17.00;12.15;;;11.20;99.90;;;;;;5017252;28;20387;-93
2022/03/28 12:18:46;;;;;;;15.57;12.25;;;11.10;99.90;;;;;;5019155;28;20057;-95
2022/03/28 12:21:12;;;;;;;16.45;12.05;;;11.10;99.90;;;;;;5034612;28;20085;-92
2022/03/28 12:23:38;;;;;;;15.70;11.38;;;11.20;99.90;;;;;;5033361;28;20065;-92
2022/03/28 12:26:05;;;;;;;15.48;11.73;;;11.30;99.90;;;;;;5027938;28;20052;-93
2022/03/28 12:28:38;;;;;;;15.05;12.20;;;11.20;99.90;;;;;;5037792;28;20068;-92
2022/03/28 12:31:06;;;;;;;16.48;12.98;;;11.10;99.90;;;;;;5018753;28;20096;-94
2022/03/28 12:33:38;;;;;;;15.50;12.38;;;11.10;99.90;;;;;;5033478;28;20434;-94
2022/03/28 12:36:08;;;;;;;15.30;12.73;;;11.30;99.90;;;;;;5021463;28;20042;-92
2022/03/28 12:38:44;;;;;;;16.55;12.40;;;11.50;99.90;;;;;;5017720;28;20046;-93
2022/03/28 12:41:12;;;;;;;18.23;14.02;;;11.50;99.90;;;;;;5025628;28;20148;-93
2022/03/28 12:43:39;;;;;;;17.80;13.70;;;11.40;99.90;;;;;;5031513;28;20044;-94
2022/03/28 12:46:08;;;;;;;17.08;14.27;;;11.50;99.90;;;;;;5031418;28;20048;-93
2022/03/28 12:48:53;;;;;;;18.98;14.20;;;11.40;99.90;;;;;;5011681;28;20355;-94
2022/03/28 12:51:24;;;;;;;19.05;13.90;;;11.50;99.90;;;;;;5010829;28;20057;-92